Time;durP1;ratioP1;P1;durP2;ratioP2;P2;SDS_P1;SDS_P2;PMS_P1;PMS_P2;Temp;Humidity;BMP_temperature;BMP_pressure;BME280_temperature;BME280_humidity;BME280_pressure;Samples;Min_cycle;Max_cycle;Signal;HPM_P1;HPM_P2
2024/02/20 00:01:23;;;;;;;102.80;73.55;;;;;;;;;;10097273;28;20076;-75
2024/02/20 00:06:18;;;;;;;105.18;76.47;;;;;;;;;;10106558;28;20076;-75
2024/02/20 00:11:13;;;;;;;109.63;77.95;;;;;;;;;;10107146;28;20129;-75
2024/02/20 00:16:06;;;;;;;119.28;81.88;;;;;;;;;;10093923;28;20056;-74
2024/02/20 00:21:00;;;;;;;113.93;78.55;;;;;;;;;;10109170;28;20102;-77
2024/02/20 00:25:54;;;;;;;112.57;84.50;;;;;;;;;;10110772;28;20511;-75
2024/02/20 00:30:50;;;;;;;119.57;89.15;;;;;;;;;;10110112;28;20049;-75
2024/02/20 00:35:44;;;;;;;123.75;90.05;;;;;;;;;;10110396;28;20083;-75
2024/02/20 00:40:39;;;;;;;126.97;90.03;;;;;;;;;;10109360;28;20056;-75
2024/02/20 00:45:34;;;;;;;120.95;88.32;;;;;;;;;;10109371;28;20131;-75
2024/02/20 00:50:28;;;;;;;120.25;86.55;;;;;;;;;;10109396;28;20087;-75
2024/02/20 00:55:23;;;;;;;124.40;87.88;;;;;;;;;;10109633;28;20128;-75
2024/02/20 01:00:17;;;;;;;124.82;88.18;;;;;;;;;;10108878;28;20136;-76
2024/02/20 01:05:12;;;;;;;114.47;83.85;;;;;;;;;;10095665;28;20056;-77
2024/02/20 01:10:06;;;;;;;117.20;84.55;;;;;;;;;;10108711;28;20071;-75
2024/02/20 01:15:02;;;;;;;106.95;78.32;;;;;;;;;;10108587;28;20167;-75
2024/02/20 01:19:56;;;;;;;112.82;80.40;;;;;;;;;;10104052;28;20061;-75
2024/02/20 01:24:50;;;;;;;125.60;86.53;;;;;;;;;;10099529;28;20045;-74
2024/02/20 01:29:46;;;;;;;118.90;83.97;;;;;;;;;;10107201;28;20041;-75
2024/02/20 01:34:40;;;;;;;110.25;78.18;;;;;;;;;;10107781;28;20358;-74
2024/02/20 01:39:35;;;;;;;119.47;84.45;;;;;;;;;;10107137;28;20124;-73
2024/02/20 01:44:32;;;;;;;108.53;77.22;;;;;;;;;;10099422;28;20056;-74
2024/02/20 01:49:26;;;;;;;104.82;79.80;;;;;;;;;;10106117;28;20045;-75
2024/02/20 01:54:22;;;;;;;108.72;79.22;;;;;;;;;;10103798;28;20106;-75
2024/02/20 01:59:16;;;;;;;111.03;79.55;;;;;;;;;;10104396;28;20059;-74
2024/02/20 02:04:10;;;;;;;120.93;87.50;;;;;;;;;;10103129;28;20049;-74
2024/02/20 02:09:04;;;;;;;123.10;83.78;;;;;;;;;;10105209;28;20053;-75
2024/02/20 02:13:58;;;;;;;107.25;79.15;;;;;;;;;;10102837;28;20147;-75
2024/02/20 02:18:52;;;;;;;121.70;87.35;;;;;;;;;;10103790;28;20056;-75
2024/02/20 02:23:46;;;;;;;124.22;87.38;;;;;;;;;;10103625;28;20037;-74
2024/02/20 02:28:39;;;;;;;131.32;87.47;;;;;;;;;;10103912;28;20099;-74
2024/02/20 02:33:33;;;;;;;133.98;87.97;;;;;;;;;;10102937;28;20099;-74
2024/02/20 02:38:28;;;;;;;127.53;91.63;;;;;;;;;;10103905;28;20041;-74
2024/02/20 02:43:22;;;;;;;117.13;85.35;;;;;;;;;;10103092;28;20103;-75
2024/02/20 02:48:16;;;;;;;122.72;90.63;;;;;;;;;;10103112;28;20067;-75
2024/02/20 02:53:10;;;;;;;125.72;88.28;;;;;;;;;;10101898;28;20114;-76
2024/02/20 02:58:05;;;;;;;124.38;85.97;;;;;;;;;;10102815;28;20099;-75
2024/02/20 03:02:59;;;;;;;115.85;84.30;;;;;;;;;;10102771;28;20055;-75
2024/02/20 03:07:54;;;;;;;121.20;87.22;;;;;;;;;;10100195;28;20053;-75
2024/02/20 03:12:48;;;;;;;117.63;79.97;;;;;;;;;;10101557;28;20045;-76
2024/02/20 03:17:45;;;;;;;106.70;74.35;;;;;;;;;;10102518;28;20053;-75
2024/02/20 03:22:40;;;;;;;112.63;79.97;;;;;;;;;;10101395;28;20106;-75
2024/02/20 03:27:36;;;;;;;109.57;81.03;;;;;;;;;;10101897;28;20516;-75
2024/02/20 03:32:31;;;;;;;108.97;81.10;;;;;;;;;;10101753;28;20052;-75
2024/02/20 03:37:25;;;;;;;103.03;75.85;;;;;;;;;;10100046;28;20060;-75
2024/02/20 03:42:19;;;;;;;114.60;79.63;;;;;;;;;;10101779;28;20417;-75
2024/02/20 03:47:13;;;;;;;120.93;83.65;;;;;;;;;;10098523;28;20048;-74
2024/02/20 03:52:08;;;;;;;115.47;79.60;;;;;;;;;;10107325;28;20049;-75
2024/02/20 03:57:03;;;;;;;115.05;76.88;;;;;;;;;;10109007;28;20064;-76
2024/02/20 04:01:57;;;;;;;106.85;78.93;;;;;;;;;;10108927;28;20133;-76
2024/02/20 04:06:52;;;;;;;110.22;78.88;;;;;;;;;;10108154;28;20045;-73
2024/02/20 04:11:47;;;;;;;114.78;81.18;;;;;;;;;;10108581;28;20045;-75
2024/02/20 04:16:41;;;;;;;115.50;83.55;;;;;;;;;;10108397;28;20042;-75
2024/02/20 04:21:35;;;;;;;101.97;78.82;;;;;;;;;;10108176;28;20063;-75
2024/02/20 04:26:29;;;;;;;102.50;74.57;;;;;;;;;;10106985;28;20056;-74
2024/02/20 04:31:24;;;;;;;116.82;81.35;;;;;;;;;;10107816;28;20098;-74
2024/02/20 04:36:20;;;;;;;110.68;78.57;;;;;;;;;;10107878;28;20057;-74
2024/02/20 04:41:24;;;;;;;116.40;79.70;;;;;;;;;;10107732;28;20040;-75
2024/02/20 04:46:18;;;;;;;116.88;80.93;;;;;;;;;;10106097;28;20059;-76
2024/02/20 04:51:14;;;;;;;123.05;89.38;;;;;;;;;;10107197;28;20128;-74
2024/02/20 04:56:08;;;;;;;121.93;83.78;;;;;;;;;;10106887;28;20044;-76
2024/02/20 05:01:03;;;;;;;119.78;87.85;;;;;;;;;;10106761;28;20471;-75
2024/02/20 05:05:58;;;;;;;125.93;89.53;;;;;;;;;;10105040;28;20048;-75
2024/02/20 05:10:51;;;;;;;97.97;71.68;;;;;;;;;;10106101;28;20127;-75
2024/02/20 05:15:46;;;;;;;114.20;80.70;;;;;;;;;;10106692;28;20056;-75
2024/02/20 05:20:40;;;;;;;115.40;82.05;;;;;;;;;;10106783;28;20045;-74
2024/02/20 05:25:35;;;;;;;112.80;74.80;;;;;;;;;;10105700;28;20037;-75
2024/02/20 05:30:28;;;;;;;101.65;73.85;;;;;;;;;;10106134;28;20045;-75
2024/02/20 05:35:22;;;;;;;115.50;77.70;;;;;;;;;;10105258;28;20080;-75
2024/02/20 05:40:16;;;;;;;190.55;136.00;;;;;;;;;;10102769;28;20123;-74
2024/02/20 05:45:11;;;;;;;102.80;77.70;;;;;;;;;;10104683;28;20053;-76
2024/02/20 05:50:07;;;;;;;117.72;86.70;;;;;;;;;;10093702;28;20115;-74
2024/02/20 05:55:01;;;;;;;128.55;90.53;;;;;;;;;;10100347;28;20440;-73
2024/02/20 05:59:56;;;;;;;114.97;83.50;;;;;;;;;;10099306;28;20052;-74
2024/02/20 06:04:50;;;;;;;111.18;77.88;;;;;;;;;;10101113;28;20144;-76
2024/02/20 06:09:44;;;;;;;108.80;80.82;;;;;;;;;;10102537;28;20069;-77
2024/02/20 06:14:48;;;;;;;98.53;72.53;;;;;;;;;;10101873;28;20064;-76
2024/02/20 06:19:44;;;;;;;107.65;78.55;;;;;;;;;;10102755;28;20485;-76
2024/02/20 06:24:38;;;;;;;114.75;81.90;;;;;;;;;;10080330;28;20076;-76
2024/02/20 06:29:32;;;;;;;149.57;114.32;;;;;;;;;;10105786;28;20103;-76
2024/02/20 06:34:26;;;;;;;111.82;78.18;;;;;;;;;;10106067;28;20053;-75
2024/02/20 06:39:22;;;;;;;109.60;80.13;;;;;;;;;;10104731;28;20056;-74
2024/02/20 06:44:16;;;;;;;107.85;77.50;;;;;;;;;;10093935;28;20049;-74
2024/02/20 06:49:10;;;;;;;102.07;76.05;;;;;;;;;;10088038;28;20049;-75
2024/02/20 06:54:05;;;;;;;114.88;81.32;;;;;;;;;;10102615;28;20083;-75
2024/02/20 06:58:59;;;;;;;109.50;76.22;;;;;;;;;;10091965;28;20095;-75
2024/02/20 07:03:53;;;;;;;131.82;91.75;;;;;;;;;;10093771;28;20846;-74
2024/02/20 07:08:48;;;;;;;105.57;76.30;;;;;;;;;;10097551;28;20103;-74
2024/02/20 07:13:42;;;;;;;106.97;72.00;;;;;;;;;;10099853;28;20072;-77
2024/02/20 07:18:37;;;;;;;84.57;61.72;;;;;;;;;;10100887;28;20053;-75
2024/02/20 07:23:31;;;;;;;109.38;74.07;;;;;;;;;;10101333;28;20087;-75
2024/02/20 07:28:25;;;;;;;107.10;75.00;;;;;;;;;;10106276;28;20077;-75
2024/02/20 07:33:20;;;;;;;108.93;79.82;;;;;;;;;;10107367;28;20057;-75
2024/02/20 07:38:29;;;;;;;104.43;70.33;;;;;;;;;;10109394;28;20090;-75
2024/02/20 07:43:23;;;;;;;102.28;72.75;;;;;;;;;;10106349;28;20394;-75
2024/02/20 07:48:18;;;;;;;106.97;72.63;;;;;;;;;;10102939;28;20052;-75
2024/02/20 07:53:12;;;;;;;113.38;75.15;;;;;;;;;;10109924;28;20142;-75
2024/02/20 07:58:07;;;;;;;108.78;78.13;;;;;;;;;;10103094;28;20060;-76
2024/02/20 08:03:01;;;;;;;100.82;70.07;;;;;;;;;;10106004;28;20503;-75
2024/02/20 08:07:55;;;;;;;102.47;65.45;;;;;;;;;;10111312;28;20053;-75
2024/02/20 08:12:49;;;;;;;80.72;57.15;;;;;;;;;;10108129;28;20132;-74
2024/02/20 08:17:44;;;;;;;89.38;56.92;;;;;;;;;;10106584;28;20475;-75
2024/02/20 08:22:40;;;;;;;83.47;54.45;;;;;;;;;;10106601;28;20063;-75
2024/02/20 08:27:35;;;;;;;80.13;58.22;;;;;;;;;;10108588;28;20056;-75
2024/02/20 08:32:29;;;;;;;95.90;64.00;;;;;;;;;;10109633;28;20382;-75
2024/02/20 08:37:23;;;;;;;82.43;61.90;;;;;;;;;;10109290;28;20064;-75
2024/02/20 08:42:18;;;;;;;88.22;61.83;;;;;;;;;;10109148;28;20064;-75
2024/02/20 08:47:13;;;;;;;74.20;51.08;;;;;;;;;;10108800;28;20076;-75
2024/02/20 08:52:07;;;;;;;71.13;49.80;;;;;;;;;;10109238;28;20045;-75
2024/02/20 08:57:04;;;;;;;68.95;50.22;;;;;;;;;;10092155;28;20131;-75
2024/02/20 09:01:58;;;;;;;67.28;49.72;;;;;;;;;;10096963;28;20049;-74
2024/02/20 09:06:52;;;;;;;66.50;49.13;;;;;;;;;;10106330;28;20472;-75
2024/02/20 09:11:46;;;;;;;89.72;60.33;;;;;;;;;;10107285;28;20056;-75
2024/02/20 09:16:41;;;;;;;85.53;63.33;;;;;;;;;;10105130;28;20626;-75
2024/02/20 09:21:35;;;;;;;87.78;63.38;;;;;;;;;;10094696;28;20061;-74
2024/02/20 09:26:31;;;;;;;90.22;65.95;;;;;;;;;;10106831;28;20499;-74
2024/02/20 09:31:24;;;;;;;93.22;68.03;;;;;;;;;;10107040;28;20434;-74
2024/02/20 09:36:17;;;;;;;92.60;67.68;;;;;;;;;;10095369;28;20547;-74
2024/02/20 09:41:11;;;;;;;88.93;67.00;;;;;;;;;;10106443;28;20040;-74
2024/02/20 09:46:08;;;;;;;90.88;67.35;;;;;;;;;;10096144;28;20049;-75
2024/02/20 09:51:03;;;;;;;83.95;63.35;;;;;;;;;;10099155;28;20126;-76
2024/02/20 09:55:57;;;;;;;79.75;60.88;;;;;;;;;;10095534;28;20049;-74
2024/02/20 10:00:55;;;;;;;79.88;58.05;;;;;;;;;;10102970;28;20447;-75
2024/02/20 10:05:52;;;;;;;74.28;56.33;;;;;;;;;;10096422;28;20107;-75
2024/02/20 10:10:47;;;;;;;82.82;62.92;;;;;;;;;;10099198;28;20476;-76
2024/02/20 10:15:41;;;;;;;78.15;60.58;;;;;;;;;;10096752;28;20053;-76
2024/02/20 10:20:35;;;;;;;79.20;59.22;;;;;;;;;;10094149;28;20409;-76
2024/02/20 10:25:30;;;;;;;79.65;60.97;;;;;;;;;;10105615;28;20047;-75
2024/02/20 10:30:25;;;;;;;86.72;62.38;;;;;;;;;;10106197;28;20052;-76
2024/02/20 10:35:23;;;;;;;86.88;68.30;;;;;;;;;;10105696;28;20111;-76
2024/02/20 10:40:18;;;;;;;83.13;66.75;;;;;;;;;;10105314;28;20515;-76
2024/02/20 10:45:23;;;;;;;89.70;66.47;;;;;;;;;;10095485;28;20060;-75
2024/02/20 10:50:22;;;;;;;86.47;70.38;;;;;;;;;;10102733;28;20079;-76
2024/02/20 10:55:16;;;;;;;79.18;66.30;;;;;;;;;;10097374;28;20055;-77
2024/02/20 11:00:25;;;;;;;82.07;66.27;;;;;;;;;;10100486;28;20127;-76
2024/02/20 11:05:18;;;;;;;72.68;61.33;;;;;;;;;;10113212;28;20080;-76
2024/02/20 11:10:23;;;;;;;66.47;56.55;;;;;;;;;;10105248;28;20084;-76
2024/02/20 11:15:26;;;;;;;67.22;56.00;;;;;;;;;;10112082;28;20132;-75
2024/02/20 11:20:23;;;;;;;65.47;56.17;;;;;;;;;;10106800;28;20053;-75
2024/02/20 11:25:22;;;;;;;66.37;54.27;;;;;;;;;;10103292;28;20057;-76
2024/02/20 11:30:18;;;;;;;68.00;56.90;;;;;;;;;;10108147;28;20052;-75
2024/02/20 11:35:39;;;;;;;67.95;58.30;;;;;;;;;;10102045;28;20057;-74
2024/02/20 11:40:35;;;;;;;71.25;62.75;;;;;;;;;;10109664;28;20056;-75
2024/02/20 11:45:30;;;;;;;72.72;58.67;;;;;;;;;;10107346;28;20723;-76
2024/02/20 11:50:28;;;;;;;72.18;62.97;;;;;;;;;;10106727;28;20445;-76
2024/02/20 11:55:22;;;;;;;71.15;63.53;;;;;;;;;;10099630;28;20390;-76
2024/02/20 12:00:17;;;;;;;69.93;62.30;;;;;;;;;;10107145;28;20099;-75
2024/02/20 12:05:20;;;;;;;64.15;57.20;;;;;;;;;;10107574;28;20048;-76
2024/02/20 12:10:18;;;;;;;68.05;59.92;;;;;;;;;;10107067;28;20075;-76
2024/02/20 12:15:12;;;;;;;;;;;;;;;;;;10102405;28;20082;-76
2024/02/20 12:20:09;;;;;;;63.85;56.30;;;;;;;;;;10105728;28;19927;-76
2024/02/20 12:25:07;;;;;;;;;;;;;;;;;;10104267;28;20053;-75
2024/02/20 12:30:03;;;;;;;88.17;65.17;;;;;;;;;;10093807;28;19924;-75
2024/02/20 12:34:57;;;;;;;70.15;62.58;;;;;;;;;;10107126;28;20049;-75
2024/02/20 12:39:52;;;;;;;68.95;61.63;;;;;;;;;;10102156;28;20398;-76
2024/02/20 12:44:46;;;;;;;71.38;62.92;;;;;;;;;;10104811;28;20064;-75
2024/02/20 12:49:40;;;;;;;69.68;60.92;;;;;;;;;;10106618;28;20049;-75
2024/02/20 12:54:34;;;;;;;66.95;57.58;;;;;;;;;;10104778;28;20139;-75
2024/02/20 12:59:29;;;;;;;66.53;58.22;;;;;;;;;;10109314;28;20068;-75
2024/02/20 13:04:23;;;;;;;69.00;54.20;;;;;;;;;;10106524;28;20052;-75
2024/02/20 13:09:19;;;;;;;61.13;52.90;;;;;;;;;;10106737;28;20057;-72
2024/02/20 13:14:12;;;;;;;63.50;55.13;;;;;;;;;;10103804;28;20094;-75
2024/02/20 13:19:07;;;;;;;61.42;51.35;;;;;;;;;;10103338;28;20063;-81
2024/02/20 13:24:01;;;;;;;68.55;53.67;;;;;;;;;;10103918;28;20053;-74
2024/02/20 13:28:56;;;;;;;66.32;51.00;;;;;;;;;;10103829;28;20139;-74
2024/02/20 13:33:50;;;;;;;56.38;47.25;;;;;;;;;;10094868;28;20049;-75
2024/02/20 13:38:44;;;;;;;49.95;41.72;;;;;;;;;;10105998;28;20543;-77
2024/02/20 13:43:41;;;;;;;47.95;40.00;;;;;;;;;;10103849;28;20106;-76
2024/02/20 13:48:35;;;;;;;49.78;41.60;;;;;;;;;;10104279;28;20049;-77
2024/02/20 13:53:29;;;;;;;56.05;44.58;;;;;;;;;;10104638;28;20083;-78
2024/02/20 13:58:26;;;;;;;54.85;42.78;;;;;;;;;;10099286;28;20446;-80
2024/02/20 14:03:20;;;;;;;50.90;40.10;;;;;;;;;;10103675;28;20393;-80
2024/02/20 14:08:13;;;;;;;47.65;40.63;;;;;;;;;;10101821;28;20077;-82
2024/02/20 14:13:08;;;;;;;45.70;36.38;;;;;;;;;;10104410;28;20136;-80
2024/02/20 14:18:02;;;;;;;43.53;36.88;;;;;;;;;;10101733;28;20420;-80
2024/02/20 14:22:56;;;;;;;47.17;39.15;;;;;;;;;;10095574;28;20045;-77
2024/02/20 14:27:50;;;;;;;57.22;44.20;;;;;;;;;;10092918;28;20098;-80
2024/02/20 14:32:46;;;;;;;48.72;37.85;;;;;;;;;;10087679;28;20045;-80
2024/02/20 14:37:40;;;;;;;47.72;39.25;;;;;;;;;;10081740;28;20043;-80
2024/02/20 14:42:34;;;;;;;49.78;38.47;;;;;;;;;;10082430;28;20065;-79
2024/02/20 14:47:30;;;;;;;42.92;36.85;;;;;;;;;;10085892;28;20051;-79
2024/02/20 14:52:25;;;;;;;40.08;35.33;;;;;;;;;;10084159;28;20190;-79
2024/02/20 14:57:22;;;;;;;43.95;35.90;;;;;;;;;;10081398;28;20556;-80
2024/02/20 15:02:16;;;;;;;43.17;34.80;;;;;;;;;;10087626;28;20136;-78
2024/02/20 15:07:13;;;;;;;47.50;37.58;;;;;;;;;;10100733;28;20049;-80
2024/02/20 15:12:18;;;;;;;49.05;38.15;;;;;;;;;;10092314;28;20103;-78
2024/02/20 15:17:12;;;;;;;47.30;36.72;;;;;;;;;;10093113;28;20467;-79
2024/02/20 15:22:06;;;;;;;48.10;38.17;;;;;;;;;;10089393;28;20053;-79
2024/02/20 15:27:01;;;;;;;46.53;36.10;;;;;;;;;;10096935;28;20053;-78
2024/02/20 15:31:57;;;;;;;45.40;35.03;;;;;;;;;;10098528;28;20529;-79
2024/02/20 15:36:54;;;;;;;47.72;38.88;;;;;;;;;;10090577;28;20171;-79
2024/02/20 15:41:53;;;;;;;43.38;35.90;;;;;;;;;;10096797;28;20492;-79
2024/02/20 15:46:54;;;;;;;47.47;38.88;;;;;;;;;;10099913;28;20570;-78
2024/02/20 15:51:48;;;;;;;48.58;39.75;;;;;;;;;;10104260;28;20469;-79
2024/02/20 15:56:44;;;;;;;51.70;37.70;;;;;;;;;;10103967;28;20053;-78
2024/02/20 16:01:42;;;;;;;;;;;;;;;;;;10100755;28;20053;-79
2024/02/20 16:06:39;;;;;;;48.75;36.75;;;;;;;;;;10103446;28;20407;-79
2024/02/20 16:11:42;;;;;;;46.72;34.20;;;;;;;;;;10093529;28;20454;-78
2024/02/20 16:16:51;;;;;;;47.63;37.45;;;;;;;;;;10102552;28;20465;-80
2024/02/20 16:21:57;;;;;;;61.50;46.17;;;;;;;;;;10099514;28;20060;-79
2024/02/20 16:26:58;;;;;;;49.53;36.45;;;;;;;;;;10103267;28;20048;-77
2024/02/20 16:31:57;;;;;;;45.72;35.75;;;;;;;;;;10105804;28;20416;-77
2024/02/20 16:36:58;;;;;;;49.10;36.97;;;;;;;;;;10104698;28;20566;-77
2024/02/20 16:41:53;;;;;;;44.63;37.50;;;;;;;;;;10108733;28;20049;-79
2024/02/20 16:46:46;;;;;;;59.65;47.58;;;;;;;;;;10104918;28;20443;-80
2024/02/20 16:51:41;;;;;;;49.65;36.65;;;;;;;;;;10108975;28;20051;-78
2024/02/20 16:56:35;;;;;;;47.72;38.55;;;;;;;;;;10108552;28;20103;-78
2024/02/20 17:01:29;;;;;;;50.05;38.42;;;;;;;;;;10107657;28;20057;-77
2024/02/20 17:06:24;;;;;;;56.20;40.67;;;;;;;;;;10108836;28;20535;-80
2024/02/20 17:11:18;;;;;;;56.95;42.08;;;;;;;;;;10107997;28;20048;-77
2024/02/20 17:16:12;;;;;;;60.35;45.80;;;;;;;;;;10106083;28;20045;-80
2024/02/20 17:21:11;;;;;;;67.68;52.25;;;;;;;;;;10093568;28;20519;-81
2024/02/20 17:26:05;;;;;;;61.67;49.67;;;;;;;;;;10106736;28;20049;-80
2024/02/20 17:31:03;;;;;;;69.65;50.30;;;;;;;;;;10091710;28;20302;-81
2024/02/20 17:36:00;;;;;;;62.65;44.00;;;;;;;;;;10104878;28;20049;-79
2024/02/20 17:40:55;;;;;;;63.30;47.35;;;;;;;;;;10106913;28;20139;-82
2024/02/20 17:45:49;;;;;;;76.22;55.20;;;;;;;;;;10106500;28;20151;-80
2024/02/20 17:50:44;;;;;;;80.85;62.15;;;;;;;;;;10104814;28;20117;-82
2024/02/20 17:55:37;;;;;;;70.35;51.20;;;;;;;;;;10103511;28;21069;-82
2024/02/20 18:00:32;;;;;;;65.07;46.60;;;;;;;;;;10103601;28;20049;-81
2024/02/20 18:05:26;;;;;;;63.45;46.60;;;;;;;;;;10086640;28;20136;-83
2024/02/20 18:10:21;;;;;;;65.80;45.67;;;;;;;;;;10102934;28;20053;-82
2024/02/20 18:15:14;;;;;;;65.50;47.92;;;;;;;;;;10093922;28;20090;-81
2024/02/20 18:20:13;;;;;;;70.38;47.08;;;;;;;;;;10078931;28;20171;-81
2024/02/20 18:25:10;;;;;;;76.28;51.25;;;;;;;;;;10086338;28;20053;-82
2024/02/20 18:30:09;;;;;;;66.63;47.97;;;;;;;;;;10098912;28;20382;-79
2024/02/20 18:35:05;;;;;;;68.75;48.97;;;;;;;;;;10094237;28;20160;-81
2024/02/20 18:40:00;;;;;;;75.40;53.53;;;;;;;;;;10093490;28;20064;-81
2024/02/20 18:44:54;;;;;;;68.03;49.90;;;;;;;;;;10097473;28;20053;-82
2024/02/20 18:49:50;;;;;;;71.40;52.92;;;;;;;;;;10094087;28;20059;-82
2024/02/20 18:54:49;;;;;;;67.38;51.55;;;;;;;;;;10092159;28;20052;-80
2024/02/20 18:59:43;;;;;;;64.35;49.75;;;;;;;;;;10097658;28;20102;-82
2024/02/20 19:04:38;;;;;;;66.28;50.08;;;;;;;;;;10100666;28;20053;-81
2024/02/20 19:09:32;;;;;;;68.25;50.55;;;;;;;;;;10100348;28;20053;-79
2024/02/20 19:14:26;;;;;;;72.28;48.10;;;;;;;;;;10100849;28;20118;-79
2024/02/20 19:19:20;;;;;;;64.57;48.08;;;;;;;;;;10096572;28;20049;-79
2024/02/20 19:24:14;;;;;;;70.80;51.17;;;;;;;;;;10101489;28;20152;-79
2024/02/20 19:29:09;;;;;;;73.22;52.22;;;;;;;;;;10095869;28;20400;-80
2024/02/20 19:34:03;;;;;;;76.82;53.63;;;;;;;;;;10100085;28;20045;-79
2024/02/20 19:38:57;;;;;;;74.03;57.28;;;;;;;;;;10098091;28;20076;-78
2024/02/20 19:43:52;;;;;;;79.78;58.95;;;;;;;;;;10101027;28;20053;-81
2024/02/20 19:48:47;;;;;;;74.03;54.97;;;;;;;;;;10093472;28;20080;-79
2024/02/20 19:53:42;;;;;;;75.47;54.25;;;;;;;;;;10098908;28;20049;-81
2024/02/20 19:58:36;;;;;;;70.70;52.58;;;;;;;;;;10106479;28;20114;-82
2024/02/20 20:03:30;;;;;;;78.28;55.22;;;;;;;;;;10089435;28;20045;-79
2024/02/20 20:08:24;;;;;;;75.78;55.50;;;;;;;;;;10083758;28;20457;-81
2024/02/20 20:13:18;;;;;;;78.45;56.33;;;;;;;;;;10117403;28;20412;-76
2024/02/20 20:18:13;;;;;;;61.00;46.97;;;;;;;;;;10110291;28;20064;-79
2024/02/20 20:23:07;;;;;;;57.08;41.97;;;;;;;;;;10133815;28;20045;-81
2024/02/20 20:28:01;;;;;;;55.42;40.33;;;;;;;;;;10099148;28;20056;-78
2024/02/20 20:32:55;;;;;;;60.53;45.47;;;;;;;;;;10104544;28;20053;-76
2024/02/20 20:37:51;;;;;;;52.22;39.08;;;;;;;;;;10089018;28;20207;-76
2024/02/20 20:42:46;;;;;;;52.22;40.33;;;;;;;;;;10086522;28;20053;-78
2024/02/20 20:47:41;;;;;;;52.97;39.88;;;;;;;;;;10098092;28;20110;-76
2024/02/20 20:52:35;;;;;;;58.38;44.63;;;;;;;;;;10088101;28;20080;-77
2024/02/20 20:57:28;;;;;;;53.38;38.85;;;;;;;;;;10092864;28;20067;-77
2024/02/20 21:02:22;;;;;;;50.85;38.58;;;;;;;;;;10097505;28;20515;-77
2024/02/20 21:07:17;;;;;;;50.90;39.10;;;;;;;;;;10091743;28;20048;-78
2024/02/20 21:12:12;;;;;;;51.10;39.08;;;;;;;;;;10097721;28;20048;-78
2024/02/20 21:17:06;;;;;;;55.20;42.50;;;;;;;;;;10098920;28;20059;-77
2024/02/20 21:21:59;;;;;;;58.10;45.05;;;;;;;;;;10107555;28;20060;-77
2024/02/20 21:26:55;;;;;;;56.58;41.30;;;;;;;;;;10104896;28;20059;-77
2024/02/20 21:31:51;;;;;;;56.17;43.05;;;;;;;;;;10107207;28;20493;-77
2024/02/20 21:36:46;;;;;;;56.15;42.47;;;;;;;;;;10107311;28;20052;-76
2024/02/20 21:41:40;;;;;;;62.42;42.63;;;;;;;;;;10105466;28;20404;-75
2024/02/20 21:46:33;;;;;;;50.63;37.63;;;;;;;;;;10105277;28;20451;-75
2024/02/20 21:51:28;;;;;;;49.33;37.25;;;;;;;;;;10093520;28;20057;-75
2024/02/20 21:56:22;;;;;;;50.88;38.60;;;;;;;;;;10106489;28;20052;-76
2024/02/20 22:01:16;;;;;;;50.90;38.80;;;;;;;;;;10102741;28;20045;-76
2024/02/20 22:06:12;;;;;;;52.95;39.63;;;;;;;;;;10102797;28;20061;-76
2024/02/20 22:11:09;;;;;;;50.33;39.88;;;;;;;;;;10100566;28;20126;-76
2024/02/20 22:16:06;;;;;;;52.22;38.17;;;;;;;;;;10091282;28;20500;-74
2024/02/20 22:21:00;;;;;;;49.20;37.40;;;;;;;;;;10102237;28;20052;-76
2024/02/20 22:25:55;;;;;;;53.22;39.38;;;;;;;;;;10093958;28;20068;-76
2024/02/20 22:30:50;;;;;;;45.90;36.40;;;;;;;;;;10093820;28;20053;-74
2024/02/20 22:35:44;;;;;;;48.90;37.60;;;;;;;;;;10100117;28;20172;-76
2024/02/20 22:40:38;;;;;;;43.75;34.78;;;;;;;;;;10100590;28;20140;-76
2024/02/20 22:45:44;;;;;;;48.40;37.20;;;;;;;;;;10101125;28;20516;-76
2024/02/20 22:50:38;;;;;;;46.08;35.47;;;;;;;;;;10100469;28;20527;-76
2024/02/20 22:55:31;;;;;;;53.10;35.70;;;;;;;;;;10090727;28;20084;-76
2024/02/20 23:00:25;;;;;;;50.35;37.47;;;;;;;;;;10103246;28;20485;-76
2024/02/20 23:05:20;;;;;;;46.20;36.42;;;;;;;;;;10103989;28;20056;-76
2024/02/20 23:10:14;;;;;;;51.63;38.72;;;;;;;;;;10103204;28;20053;-75
2024/02/20 23:15:10;;;;;;;57.72;42.35;;;;;;;;;;10088618;28;20054;-76
2024/02/20 23:20:08;;;;;;;59.92;42.20;;;;;;;;;;10081747;28;20059;-76
2024/02/20 23:25:02;;;;;;;50.08;38.03;;;;;;;;;;10094743;28;20049;-76
2024/02/20 23:29:56;;;;;;;56.30;41.83;;;;;;;;;;10095630;28;20563;-74
2024/02/20 23:34:52;;;;;;;63.30;45.78;;;;;;;;;;10084770;28;20045;-75
2024/02/20 23:39:46;;;;;;;64.57;51.30;;;;;;;;;;10103769;28;20074;-75
2024/02/20 23:44:40;;;;;;;63.17;50.60;;;;;;;;;;10101937;28;20514;-75
2024/02/20 23:49:34;;;;;;;53.88;42.58;;;;;;;;;;10097725;28;20048;-76
2024/02/20 23:54:29;;;;;;;52.33;41.05;;;;;;;;;;10103399;28;20060;-76
2024/02/20 23:59:23;;;;;;;52.65;38.20;;;;;;;;;;10104469;28;20045;-76
